createdAt,value
2018-10-02T00:01:03.287Z,81.60
2018-10-02T00:03:37.741Z,81.87
2018-10-02T00:06:12.455Z,82.13
2018-10-02T00:08:47.012Z,81.81
2018-10-02T00:11:27.166Z,81.68
2018-10-02T00:14:07.148Z,81.79
2018-10-02T00:16:42.229Z,81.55
2018-10-02T00:19:16.881Z,81.62
2018-10-02T00:21:51.489Z,82.03
2018-10-02T00:24:25.856Z,80.50
2018-10-02T00:27:00.463Z,80.87
2018-10-02T00:29:35.281Z,80.65
2018-10-02T00:32:10.147Z,81.16
2018-10-02T00:34:44.799Z,81.22
2018-10-02T00:37:19.560Z,81.39
2018-10-02T00:39:54.181Z,80.32
2018-10-02T00:42:29.075Z,81.16
2018-10-02T00:45:03.834Z,80.83
2018-10-02T00:47:38.550Z,81.07
2018-10-02T00:50:13.059Z,80.81
2018-10-02T00:52:47.572Z,81.28
2018-10-02T00:55:21.989Z,80.83
2018-10-02T00:57:56.659Z,81.26
2018-10-02T01:00:31.375Z,80.94
2018-10-02T01:03:06.602Z,79.67
2018-10-02T01:05:40.971Z,80.50
2018-10-02T01:08:15.795Z,80.71
2018-10-02T01:10:50.171Z,80.58
2018-10-02T01:13:24.859Z,80.36
2018-10-02T01:15:59.832Z,80.39
2018-10-02T01:18:34.555Z,79.94
2018-10-02T01:21:08.883Z,80.34
2018-10-02T01:23:43.907Z,81.38
2018-10-02T01:26:19.184Z,80.81
2018-10-02T01:28:53.682Z,81.16
2018-10-02T01:31:28.459Z,80.60
2018-10-02T01:34:03.131Z,80.51
2018-10-02T01:36:37.567Z,80.86
2018-10-02T01:39:12.136Z,81.03
2018-10-02T01:41:46.935Z,80.62
2018-10-02T01:44:21.534Z,80.04
2018-10-02T01:46:56.079Z,79.89
2018-10-02T01:49:30.740Z,80.45
2018-10-02T01:52:05.348Z,79.95
2018-10-02T01:54:40.240Z,79.39
2018-10-02T01:57:15.177Z,80.13
2018-10-02T01:59:49.909Z,80.38
2018-10-02T02:02:24.788Z,79.97
2018-10-02T02:04:59.137Z,80.58
2018-10-02T02:07:33.420Z,79.88
2018-10-02T02:10:08.048Z,81.04
2018-10-02T02:12:42.559Z,80.79
2018-10-02T02:15:17.787Z,80.79
2018-10-02T02:17:52.255Z,81.87
2018-10-02T02:20:26.952Z,80.38
2018-10-02T02:23:01.435Z,79.86
2018-10-02T02:25:35.827Z,79.84
2018-10-02T02:28:10.650Z,79.35
2018-10-02T02:30:45.193Z,79.50
2018-10-02T02:33:19.751Z,79.34
2018-10-02T02:35:54.060Z,78.57
2018-10-02T02:38:28.459Z,79.35
2018-10-02T02:41:02.822Z,78.51
2018-10-02T02:43:37.244Z,76.73
2018-10-02T02:46:11.759Z,77.99
2018-10-02T02:48:51.841Z,78.13
2018-10-02T02:51:29.361Z,78.99
2018-10-02T02:54:04.416Z,78.75
2018-10-02T02:56:38.920Z,78.67
2018-10-02T02:59:13.623Z,78.68
2018-10-02T03:01:48.667Z,78.35
2018-10-02T03:04:23.487Z,78.69
2018-10-02T03:06:58.031Z,79.47
2018-10-02T03:09:33.116Z,79.68
2018-10-02T03:12:08.399Z,79.78
2018-10-02T03:14:42.944Z,80.03
2018-10-02T03:17:17.483Z,80.50
2018-10-02T03:19:52.507Z,80.63
2018-10-02T03:22:27.191Z,80.75
2018-10-02T03:25:01.626Z,80.89
2018-10-02T03:27:36.335Z,80.37
2018-10-02T03:30:11.159Z,80.61
2018-10-02T03:32:46.119Z,81.45
2018-10-02T03:35:20.667Z,81.19
2018-10-02T03:37:55.180Z,81.28
2018-10-02T03:40:31.916Z,81.25
2018-10-02T03:43:06.759Z,80.89
2018-10-02T03:45:41.804Z,80.37
2018-10-02T03:48:16.312Z,81.44
2018-10-02T03:50:50.660Z,80.56
2018-10-02T03:53:25.141Z,80.03
2018-10-02T03:55:59.830Z,79.89
2018-10-02T03:58:35.037Z,81.03
2018-10-02T04:01:09.403Z,80.65
2018-10-02T04:03:44.336Z,81.94
2018-10-02T04:06:19.510Z,82.68
2018-10-02T04:08:54.232Z,82.79
2018-10-02T04:11:28.643Z,82.33
2018-10-02T04:14:03.770Z,81.50
2018-10-02T04:16:38.653Z,82.47
2018-10-02T04:19:13.963Z,81.05
2018-10-02T04:21:48.687Z,80.85
2018-10-02T04:24:23.339Z,80.65
2018-10-02T04:26:57.872Z,79.17
2018-10-02T04:29:32.495Z,80.69
2018-10-02T04:32:07.147Z,80.05
2018-10-02T04:34:41.639Z,81.18
2018-10-02T04:37:16.319Z,80.82
2018-10-02T04:39:51.079Z,81.07
2018-10-02T04:42:25.588Z,80.62
2018-10-02T04:45:00.380Z,80.38
2018-10-02T04:47:34.717Z,80.33
2018-10-02T04:50:16.123Z,80.37
2018-10-02T04:52:51.247Z,80.76
2018-10-02T04:55:26.012Z,81.63
2018-10-02T04:58:00.759Z,81.38
2018-10-02T05:00:35.599Z,81.21
2018-10-02T05:03:10.400Z,81.29
2018-10-02T05:05:45.247Z,81.50
2018-10-02T05:08:19.679Z,81.50
2018-10-02T05:10:54.468Z,82.43
2018-10-02T05:13:28.903Z,82.70
2018-10-02T05:16:10.976Z,82.02
2018-10-02T05:18:46.139Z,82.31
2018-10-02T05:21:20.816Z,81.76
2018-10-02T05:23:55.189Z,80.33
2018-10-02T05:26:30.390Z,79.40
2018-10-02T05:29:04.821Z,79.49
2018-10-02T05:31:39.671Z,79.82
2018-10-02T05:34:14.299Z,78.12
2018-10-02T05:36:49.073Z,77.83
2018-10-02T05:39:23.754Z,77.88
2018-10-02T05:41:58.156Z,76.69
2018-10-02T05:44:32.488Z,76.74
2018-10-02T05:47:06.878Z,77.98
2018-10-02T05:49:41.440Z,77.91
2018-10-02T05:52:16.196Z,77.43
2018-10-02T05:54:51.008Z,78.40
2018-10-02T05:57:25.839Z,77.97
2018-10-02T06:00:00.147Z,77.22
2018-10-02T06:02:34.545Z,77.46
2018-10-02T06:05:09.666Z,78.81
2018-10-02T06:07:44.104Z,78.24
2018-10-02T06:10:18.989Z,78.05
2018-10-02T06:12:53.263Z,78.01
2018-10-02T06:15:27.768Z,77.77
2018-10-02T06:18:02.629Z,76.56
2018-10-02T06:20:37.560Z,77.85
2018-10-02T06:23:12.400Z,75.75
2018-10-02T06:25:47.276Z,76.02
2018-10-02T06:28:22.067Z,76.28
2018-10-02T06:30:56.816Z,76.24
2018-10-02T06:33:31.539Z,76.67
2018-10-02T06:36:06.215Z,76.98
2018-10-02T06:38:40.724Z,77.03
2018-10-02T06:41:15.563Z,76.11
2018-10-02T06:43:50.064Z,77.42
2018-10-02T06:46:24.825Z,76.91
2018-10-02T06:48:59.277Z,76.44
2018-10-02T06:51:34.120Z,77.05
2018-10-02T06:54:08.960Z,75.74
2018-10-02T06:56:43.662Z,76.60
2018-10-02T06:59:18.404Z,75.10
2018-10-02T07:01:53.523Z,74.81
2018-10-02T07:04:28.176Z,76.00
2018-10-02T07:07:02.824Z,74.59
2018-10-02T07:09:37.604Z,74.83
2018-10-02T07:12:11.932Z,74.27
2018-10-02T07:14:46.821Z,74.88
2018-10-02T07:17:21.669Z,73.38
2018-10-02T07:19:57.136Z,73.83
2018-10-02T07:22:31.891Z,73.35
2018-10-02T07:25:06.960Z,73.65
2018-10-02T07:27:41.652Z,72.53
2018-10-02T07:30:16.707Z,73.41
2018-10-02T07:32:51.403Z,74.88
2018-10-02T07:35:26.281Z,73.42
2018-10-02T07:38:00.767Z,72.04
2018-10-02T07:40:35.454Z,73.02
2018-10-02T07:43:09.984Z,71.72
2018-10-02T07:45:44.504Z,71.95
2018-10-02T07:48:19.601Z,73.11
2018-10-02T07:50:54.288Z,71.92
2018-10-02T07:53:28.939Z,70.81
2018-10-02T07:56:04.141Z,71.14
2018-10-02T07:58:38.712Z,71.69
2018-10-02T08:01:13.137Z,69.39
2018-10-02T08:03:47.470Z,67.41
2018-10-02T08:06:22.573Z,69.83
2018-10-02T08:08:57.811Z,65.91
2018-10-02T08:11:32.599Z,68.45
2018-10-02T08:14:07.807Z,63.73
2018-10-02T08:16:42.744Z,66.66
2018-10-02T08:19:17.612Z,64.17
2018-10-02T08:21:52.477Z,65.33
2018-10-02T08:24:27.015Z,63.81
2018-10-02T08:27:01.402Z,64.69
2018-10-02T08:29:36.493Z,66.36
2018-10-02T08:32:11.835Z,68.43
2018-10-02T08:34:46.756Z,69.06
2018-10-02T08:37:21.420Z,67.56
2018-10-02T08:39:55.867Z,68.01
2018-10-02T08:42:30.288Z,66.37
2018-10-02T08:45:05.458Z,68.43
2018-10-02T08:47:40.253Z,65.89
2018-10-02T08:50:15.002Z,66.69
2018-10-02T08:52:50.452Z,67.51
2018-10-02T08:55:25.075Z,65.09
2018-10-02T08:57:59.931Z,65.70
2018-10-02T09:00:34.604Z,62.89
2018-10-02T09:03:09.715Z,64.30
2018-10-02T09:05:44.410Z,64.15
2018-10-02T09:08:18.766Z,63.43
2018-10-02T09:10:53.476Z,62.74
2018-10-02T09:13:27.932Z,61.35
2018-10-02T09:16:02.961Z,61.47
2018-10-02T09:18:37.946Z,63.81
2018-10-02T09:21:12.595Z,63.39
2018-10-02T09:23:47.438Z,64.91
2018-10-02T09:26:22.486Z,64.04
2018-10-02T09:28:57.360Z,63.13
2018-10-02T09:31:37.301Z,66.27
2018-10-02T09:36:21.059Z,65.96
2018-10-02T09:39:01.116Z,62.89
2018-10-02T09:41:41.100Z,60.17
2018-10-02T09:44:15.414Z,57.12
2018-10-02T09:46:50.032Z,56.51
2018-10-02T09:49:24.421Z,54.40
2018-10-02T09:51:59.485Z,54.29
2018-10-02T09:54:33.901Z,51.82
2018-10-02T09:57:08.576Z,53.54
2018-10-02T09:59:43.439Z,56.37
2018-10-02T10:02:23.373Z,55.63
2018-10-02T10:04:58.492Z,54.47
2018-10-02T10:07:33.019Z,54.26
2018-10-02T10:10:07.981Z,57.50
2018-10-02T10:12:42.444Z,56.61
2018-10-02T10:15:17.039Z,57.15
2018-10-02T10:17:51.525Z,57.81
2018-10-02T10:20:25.908Z,53.86
2018-10-02T10:23:00.489Z,56.05
2018-10-02T10:25:35.337Z,55.17
2018-10-02T10:28:09.940Z,56.72
2018-10-02T10:30:44.811Z,54.50
2018-10-02T10:33:19.584Z,54.39
2018-10-02T10:35:54.457Z,52.79
2018-10-02T10:38:29.843Z,53.67
2018-10-02T10:41:04.671Z,51.26
2018-10-02T10:43:41.000Z,49.89
2018-10-02T10:46:15.373Z,49.16
2018-10-02T10:48:49.802Z,49.11
2018-10-02T10:51:24.369Z,49.01
2018-10-02T10:53:59.037Z,49.21
2018-10-02T10:56:33.993Z,45.38
2018-10-02T10:59:08.617Z,47.89
2018-10-02T11:01:43.212Z,47.06
2018-10-02T11:04:18.008Z,50.97
2018-10-02T11:06:52.716Z,46.62
2018-10-02T11:09:27.392Z,46.47
2018-10-02T11:12:02.180Z,46.61
2018-10-02T11:14:36.728Z,47.46
2018-10-02T11:17:11.219Z,44.87
2018-10-02T11:19:45.584Z,48.43
2018-10-02T11:22:20.209Z,49.13
2018-10-02T11:24:54.913Z,47.50
2018-10-02T11:27:29.684Z,48.25
2018-10-02T11:30:04.755Z,45.95
2018-10-02T11:32:39.490Z,50.10
2018-10-02T11:35:14.105Z,50.93
2018-10-02T11:37:49.402Z,50.89
2018-10-02T11:40:24.089Z,50.27
2018-10-02T11:42:58.928Z,48.60
2018-10-02T11:45:33.388Z,47.81
2018-10-02T11:48:08.232Z,48.69
2018-10-02T11:50:42.912Z,48.50
2018-10-02T11:53:17.589Z,46.14
2018-10-02T11:55:52.554Z,44.82
2018-10-02T11:58:27.360Z,44.48
2018-10-02T12:01:01.869Z,42.06
2018-10-02T12:03:38.801Z,42.68
2018-10-02T12:06:14.055Z,41.31
2018-10-02T12:08:48.412Z,43.43
2018-10-02T12:11:23.322Z,44.86
2018-10-02T12:13:58.335Z,39.82
2018-10-02T12:16:32.997Z,45.27
2018-10-02T12:19:07.389Z,41.13
2018-10-02T12:21:41.815Z,43.83
2018-10-02T12:24:17.124Z,46.29
2018-10-02T12:26:51.510Z,43.36
2018-10-02T12:29:25.966Z,44.49
2018-10-02T12:32:00.397Z,47.62
2018-10-02T12:34:35.243Z,48.07
2018-10-02T12:37:10.205Z,47.91
2018-10-02T12:39:44.907Z,46.77
2018-10-02T12:42:19.644Z,49.46
2018-10-02T12:44:54.027Z,48.97
2018-10-02T12:47:28.910Z,47.73
2018-10-02T12:50:03.877Z,47.04
2018-10-02T12:52:38.435Z,47.65
2018-10-02T12:55:13.123Z,45.62
2018-10-02T12:57:47.660Z,40.92
2018-10-02T13:00:22.285Z,43.04
2018-10-02T13:02:56.902Z,41.33
2018-10-02T13:05:31.430Z,43.26
2018-10-02T13:08:05.902Z,44.42
2018-10-02T13:10:40.816Z,48.80
2018-10-02T13:13:15.451Z,45.81
2018-10-02T13:15:50.054Z,45.93
2018-10-02T13:18:25.771Z,46.04
2018-10-02T13:21:00.264Z,47.62
2018-10-02T13:23:34.870Z,47.02
2018-10-02T13:26:09.558Z,48.92
2018-10-02T13:28:44.054Z,47.62
2018-10-02T13:31:18.449Z,49.11
2018-10-02T13:33:53.349Z,48.52
2018-10-02T13:36:28.130Z,48.28
2018-10-02T13:39:02.541Z,47.27
2018-10-02T13:41:37.978Z,47.69
2018-10-02T13:44:12.564Z,45.67
2018-10-02T13:46:47.356Z,46.11
2018-10-02T13:49:21.884Z,47.53
2018-10-02T13:51:57.272Z,46.34
2018-10-02T13:54:32.026Z,47.86
2018-10-02T13:57:06.576Z,48.63
2018-10-02T13:59:41.620Z,50.88
2018-10-02T14:02:16.064Z,50.23
2018-10-02T14:04:50.481Z,50.04
2018-10-02T14:07:25.492Z,50.23
2018-10-02T14:10:00.176Z,49.60
2018-10-02T14:12:35.465Z,54.87
2018-10-02T14:15:10.137Z,50.87
2018-10-02T14:17:45.002Z,52.07
2018-10-02T14:20:19.632Z,52.56
2018-10-02T14:22:54.148Z,50.01
2018-10-02T14:25:29.200Z,51.32
2018-10-02T14:28:04.039Z,49.86
2018-10-02T14:30:39.116Z,52.15
2018-10-02T14:33:13.448Z,49.03
2018-10-02T14:35:48.207Z,49.30
2018-10-02T14:38:22.731Z,50.07
2018-10-02T14:40:57.428Z,50.32
2018-10-02T14:43:45.126Z,50.13
2018-10-02T14:46:19.629Z,50.95
2018-10-02T14:48:54.556Z,50.22
2018-10-02T14:51:29.033Z,51.46
2018-10-02T14:54:03.580Z,50.84
2018-10-02T14:56:38.089Z,51.85
2018-10-02T14:59:12.537Z,49.91
2018-10-02T15:01:47.240Z,50.57
2018-10-02T15:04:22.090Z,53.04
2018-10-02T15:06:56.833Z,51.47
2018-10-02T15:09:31.324Z,53.56
2018-10-02T15:12:05.872Z,51.68
2018-10-02T15:14:41.762Z,52.40
2018-10-02T15:17:16.281Z,51.76
2018-10-02T15:19:50.624Z,52.84
2018-10-02T15:22:25.274Z,54.67
2018-10-02T15:24:59.618Z,52.53
2018-10-02T15:27:34.311Z,51.93
2018-10-02T15:30:09.422Z,54.47
2018-10-02T15:32:44.076Z,53.07
2018-10-02T15:35:18.616Z,54.19
2018-10-02T15:37:53.502Z,53.99
2018-10-02T15:40:28.589Z,54.29
2018-10-02T15:43:03.954Z,56.00
2018-10-02T15:45:38.500Z,54.30
2018-10-02T15:48:12.945Z,54.79
2018-10-02T15:50:47.471Z,54.08
2018-10-02T15:53:22.081Z,54.21
2018-10-02T15:55:57.228Z,53.31
2018-10-02T15:58:31.675Z,52.89
2018-10-02T16:01:06.448Z,53.41
2018-10-02T16:03:57.409Z,54.75
2018-10-02T16:06:31.863Z,55.78
2018-10-02T16:09:06.713Z,56.29
2018-10-02T16:11:41.565Z,56.95
2018-10-02T16:14:16.569Z,58.18
2018-10-02T16:16:51.391Z,57.50
2018-10-02T16:19:25.868Z,56.81
2018-10-02T16:22:00.346Z,58.83
2018-10-02T16:24:35.350Z,56.56
2018-10-02T16:27:10.377Z,54.00
2018-10-02T16:29:44.853Z,53.98
2018-10-02T16:32:19.487Z,55.04
2018-10-02T16:34:54.261Z,55.13
2018-10-02T16:37:28.948Z,55.99
2018-10-02T16:40:07.425Z,57.32
2018-10-02T16:42:42.521Z,57.33
2018-10-02T16:45:17.381Z,57.02
2018-10-02T16:47:55.265Z,58.06
2018-10-02T16:50:30.720Z,57.64
2018-10-02T16:53:05.905Z,58.54
2018-10-02T16:55:40.520Z,58.77
2018-10-02T16:58:15.071Z,58.37
2018-10-02T17:00:49.908Z,58.51
2018-10-02T17:03:24.375Z,58.37
2018-10-02T17:05:58.684Z,59.36
2018-10-02T17:08:33.015Z,57.79
2018-10-02T17:11:07.634Z,59.55
2018-10-02T17:13:48.260Z,57.82
2018-10-02T17:16:22.746Z,58.78
2018-10-02T17:18:57.505Z,59.15
2018-10-02T17:21:32.340Z,59.78
2018-10-02T17:24:06.678Z,60.99
2018-10-02T17:26:41.220Z,61.25
2018-10-02T17:29:16.079Z,62.23
2018-10-02T17:31:50.628Z,60.88
2018-10-02T17:34:25.591Z,60.97
2018-10-02T17:37:00.532Z,61.69
2018-10-02T17:39:53.618Z,60.92
2018-10-02T17:42:28.081Z,61.72
2018-10-02T17:45:02.776Z,61.50
2018-10-02T17:47:41.604Z,61.34
2018-10-02T17:50:17.329Z,62.04
2018-10-02T17:52:51.792Z,62.67
2018-10-02T17:55:27.885Z,62.34
2018-10-02T17:58:02.344Z,62.30
2018-10-02T18:00:37.750Z,61.73
2018-10-02T18:03:12.213Z,61.21
2018-10-02T18:05:49.342Z,61.67
2018-10-02T18:08:23.775Z,61.26
2018-10-02T18:10:58.840Z,61.47
2018-10-02T18:13:43.472Z,61.57
2018-10-02T18:16:19.084Z,60.51
2018-10-02T18:18:53.677Z,62.21
2018-10-02T18:21:31.715Z,60.88
2018-10-02T18:24:07.734Z,62.47
2018-10-02T18:26:42.565Z,62.04
2018-10-02T18:29:17.588Z,61.10
2018-10-02T18:31:52.552Z,60.66
2018-10-02T18:34:27.429Z,59.97
2018-10-02T18:37:03.474Z,59.12
2018-10-02T18:39:38.760Z,59.99
2018-10-02T18:42:13.233Z,58.96
2018-10-02T18:44:48.525Z,59.28
2018-10-02T18:47:23.110Z,61.45
2018-10-02T18:49:58.419Z,58.71
2018-10-02T18:52:32.820Z,59.99
2018-10-02T18:55:08.404Z,60.37
2018-10-02T18:57:43.008Z,59.95
2018-10-02T19:00:18.364Z,59.84
2018-10-02T19:02:59.672Z,57.95
2018-10-02T19:05:34.461Z,59.72
2018-10-02T19:08:09.005Z,58.96
2018-10-02T19:10:43.947Z,60.05
2018-10-02T19:13:18.373Z,60.10
2018-10-02T19:15:58.977Z,61.00
2018-10-02T19:18:33.868Z,60.67
2018-10-02T19:21:09.199Z,62.20
2018-10-02T19:23:43.535Z,62.08
2018-10-02T19:26:22.024Z,62.63
2018-10-02T19:28:56.803Z,61.17
2018-10-02T19:31:37.053Z,63.42
2018-10-02T19:34:11.705Z,64.60
2018-10-02T19:36:46.311Z,65.35
2018-10-02T19:39:32.169Z,65.52
2018-10-02T19:42:06.976Z,64.75
2018-10-02T19:44:41.276Z,65.81
2018-10-02T19:47:16.224Z,64.86
2018-10-02T19:49:51.336Z,65.57
2018-10-02T19:52:26.204Z,65.25
2018-10-02T19:55:01.311Z,65.86
2018-10-02T19:57:40.236Z,66.07
2018-10-02T20:00:14.746Z,66.12
2018-10-02T20:02:49.355Z,66.74
2018-10-02T20:05:23.816Z,66.31
2018-10-02T20:07:58.243Z,67.46
2018-10-02T20:10:32.959Z,66.42
2018-10-02T20:13:07.539Z,66.84
2018-10-02T20:15:42.869Z,67.26
2018-10-02T20:18:17.255Z,67.10
2018-10-02T20:20:51.967Z,67.07
2018-10-02T20:23:26.513Z,66.44
2018-10-02T20:26:01.552Z,67.16
2018-10-02T20:34:36.196Z,67.26
2018-10-02T20:37:10.629Z,67.80
2018-10-02T20:39:45.101Z,69.15
2018-10-02T20:42:19.460Z,67.49
2018-10-02T20:44:53.992Z,68.94
2018-10-02T20:47:30.678Z,69.75
2018-10-02T20:50:05.691Z,69.03
2018-10-02T20:52:40.100Z,68.16
2018-10-02T20:55:14.533Z,68.76
2018-10-02T20:57:59.200Z,68.71
2018-10-02T21:00:34.133Z,69.46
2018-10-02T21:03:08.670Z,69.16
2018-10-02T21:05:43.496Z,68.67
2018-10-02T21:08:25.571Z,68.12
2018-10-02T21:11:00.155Z,68.83
2018-10-02T21:13:34.978Z,68.58
2018-10-02T21:16:09.477Z,69.18
2018-10-02T21:18:43.824Z,70.27
2018-10-02T21:21:18.316Z,69.17
2018-10-02T21:23:52.784Z,68.76
2018-10-02T21:26:27.527Z,69.55
2018-10-02T21:29:02.473Z,69.68
2018-10-02T21:31:37.786Z,70.09
2018-10-02T21:34:12.652Z,69.70
2018-10-02T21:36:47.236Z,69.34
2018-10-02T21:39:21.699Z,69.96
2018-10-02T21:42:03.920Z,69.57
2018-10-02T21:44:38.311Z,70.09
2018-10-02T21:47:13.276Z,70.64
2018-10-02T21:49:47.863Z,70.21
2018-10-02T21:52:22.642Z,70.40
2018-10-02T21:54:57.110Z,70.04
2018-10-02T21:57:31.416Z,70.92
2018-10-02T22:00:06.914Z,71.54
2018-10-02T22:02:41.561Z,71.87
2018-10-02T22:05:16.370Z,71.80
2018-10-02T22:07:50.883Z,72.53
2018-10-02T22:10:26.089Z,72.02
2018-10-02T22:13:00.778Z,72.29
2018-10-02T22:15:35.987Z,72.61
2018-10-02T22:18:11.091Z,72.61
2018-10-02T22:20:45.851Z,72.27
2018-10-02T22:23:20.427Z,73.02
2018-10-02T22:25:55.305Z,74.16
2018-10-02T22:28:29.663Z,74.07
2018-10-02T22:31:04.664Z,73.73
2018-10-02T22:33:40.074Z,73.06
2018-10-02T22:36:14.828Z,73.52
2018-10-02T22:38:49.340Z,73.73
2018-10-02T22:41:23.676Z,74.17
2018-10-02T22:43:58.168Z,73.74
2018-10-02T22:46:32.907Z,73.45
2018-10-02T22:49:07.623Z,74.13
2018-10-02T22:51:42.360Z,74.11
2018-10-02T22:54:16.938Z,73.91
2018-10-02T22:56:51.485Z,73.06
2018-10-02T22:59:25.987Z,73.50
2018-10-02T23:02:00.260Z,72.98
2018-10-02T23:04:34.724Z,73.18
2018-10-02T23:07:09.568Z,73.43
2018-10-02T23:09:44.264Z,73.91
2018-10-02T23:12:19.355Z,73.43
2018-10-02T23:14:53.695Z,72.87
2018-10-02T23:17:28.383Z,73.69
2018-10-02T23:20:03.100Z,73.08
2018-10-02T23:22:37.559Z,73.42
2018-10-02T23:25:12.099Z,73.43
2018-10-02T23:27:46.704Z,73.40
2018-10-02T23:30:21.776Z,73.07
2018-10-02T23:32:56.564Z,73.01
2018-10-02T23:35:31.856Z,72.94
2018-10-02T23:38:06.348Z,73.51
2018-10-02T23:40:40.725Z,73.10
2018-10-02T23:43:15.239Z,73.46
2018-10-02T23:45:49.764Z,73.78
2018-10-02T23:48:24.183Z,73.75
2018-10-02T23:50:58.688Z,73.83
2018-10-02T23:53:33.779Z,74.14
2018-10-02T23:56:08.435Z,73.27
2018-10-02T23:58:43.162Z,73.48
